sensor_id;sensor_type;location;lat;lon;timestamp;P1;durP1;ratioP1;P2;durP2;ratioP2
12912;SDS011;6524;51.368;11.984;2022-12-07T00:03:11;10.80;;;7.83;;
12912;SDS011;6524;51.368;11.984;2022-12-07T00:08:11;11.03;;;8.27;;
12912;SDS011;6524;51.368;11.984;2022-12-07T00:13:12;12.67;;;8.77;;
12912;SDS011;6524;51.368;11.984;2022-12-07T00:18:12;11.20;;;8.13;;
12912;SDS011;6524;51.368;11.984;2022-12-07T00:23:12;11.27;;;8.13;;
12912;SDS011;6524;51.368;11.984;2022-12-07T00:28:13;12.33;;;7.97;;
12912;SDS011;6524;51.368;11.984;2022-12-07T00:33:13;11.27;;;8.13;;
12912;SDS011;6524;51.368;11.984;2022-12-07T00:38:13;13.13;;;9.07;;
12912;SDS011;6524;51.368;11.984;2022-12-07T00:43:14;11.00;;;8.20;;
12912;SDS011;6524;51.368;11.984;2022-12-07T00:48:14;11.80;;;8.03;;
12912;SDS011;6524;51.368;11.984;2022-12-07T00:53:15;13.03;;;8.90;;
12912;SDS011;6524;51.368;11.984;2022-12-07T00:58:22;11.63;;;7.83;;
12912;SDS011;6524;51.368;11.984;2022-12-07T05:05:24;10.87;;;7.80;;
12912;SDS011;6524;51.368;11.984;2022-12-07T05:10:25;9.83;;;7.40;;
12912;SDS011;6524;51.368;11.984;2022-12-07T05:15:25;8.50;;;7.03;;
12912;SDS011;6524;51.368;11.984;2022-12-07T05:20:25;8.60;;;7.07;;
12912;SDS011;6524;51.368;11.984;2022-12-07T05:25:25;9.80;;;8.20;;
12912;SDS011;6524;51.368;11.984;2022-12-07T05:30:26;11.45;;;8.07;;
12912;SDS011;6524;51.368;11.984;2022-12-07T05:35:26;12.63;;;8.20;;
12912;SDS011;6524;51.368;11.984;2022-12-07T05:40:26;10.63;;;8.00;;
12912;SDS011;6524;51.368;11.984;2022-12-07T05:45:27;10.53;;;8.13;;
12912;SDS011;6524;51.368;11.984;2022-12-07T05:50:27;11.83;;;9.10;;
12912;SDS011;6524;51.368;11.984;2022-12-07T05:55:28;12.07;;;8.53;;
12912;SDS011;6524;51.368;11.984;2022-12-07T06:00:28;12.37;;;8.90;;
12912;SDS011;6524;51.368;11.984;2022-12-07T06:05:28;14.10;;;9.50;;
12912;SDS011;6524;51.368;11.984;2022-12-07T06:10:29;13.07;;;8.97;;
12912;SDS011;6524;51.368;11.984;2022-12-07T06:15:29;11.73;;;9.07;;
12912;SDS011;6524;51.368;11.984;2022-12-07T06:20:29;11.73;;;9.17;;
12912;SDS011;6524;51.368;11.984;2022-12-07T06:25:30;12.17;;;9.03;;
12912;SDS011;6524;51.368;11.984;2022-12-07T06:30:30;13.05;;;9.13;;
12912;SDS011;6524;51.368;11.984;2022-12-07T06:35:31;12.55;;;8.85;;
12912;SDS011;6524;51.368;11.984;2022-12-07T06:40:32;15.23;;;10.87;;
12912;SDS011;6524;51.368;11.984;2022-12-07T06:45:33;13.27;;;9.20;;
12912;SDS011;6524;51.368;11.984;2022-12-07T06:50:33;12.37;;;9.27;;
12912;SDS011;6524;51.368;11.984;2022-12-07T06:55:33;11.17;;;8.33;;
12912;SDS011;6524;51.368;11.984;2022-12-07T07:00:34;13.03;;;8.87;;
12912;SDS011;6524;51.368;11.984;2022-12-07T07:05:35;11.13;;;8.33;;
12912;SDS011;6524;51.368;11.984;2022-12-07T07:10:35;11.50;;;8.90;;
12912;SDS011;6524;51.368;11.984;2022-12-07T07:15:37;11.10;;;8.10;;
12912;SDS011;6524;51.368;11.984;2022-12-07T07:20:38;11.07;;;8.10;;
12912;SDS011;6524;51.368;11.984;2022-12-07T07:25:38;12.20;;;8.90;;
12912;SDS011;6524;51.368;11.984;2022-12-07T07:30:39;13.40;;;9.07;;
12912;SDS011;6524;51.368;11.984;2022-12-07T07:35:39;13.83;;;9.57;;
12912;SDS011;6524;51.368;11.984;2022-12-07T07:40:40;13.07;;;8.63;;
12912;SDS011;6524;51.368;11.984;2022-12-07T07:45:40;16.90;;;11.13;;
12912;SDS011;6524;51.368;11.984;2022-12-07T07:50:41;14.00;;;9.43;;
12912;SDS011;6524;51.368;11.984;2022-12-07T07:55:41;11.67;;;8.33;;
12912;SDS011;6524;51.368;11.984;2022-12-07T08:00:49;11.13;;;8.90;;
12912;SDS011;6524;51.368;11.984;2022-12-07T08:05:50;14.53;;;9.60;;
12912;SDS011;6524;51.368;11.984;2022-12-07T08:10:50;11.80;;;8.47;;
12912;SDS011;6524;51.368;11.984;2022-12-07T08:15:51;11.80;;;8.37;;
12912;SDS011;6524;51.368;11.984;2022-12-07T08:20:51;11.13;;;7.27;;
12912;SDS011;6524;51.368;11.984;2022-12-07T08:25:51;10.00;;;6.93;;
12912;SDS011;6524;51.368;11.984;2022-12-07T08:30:52;11.20;;;7.10;;
12912;SDS011;6524;51.368;11.984;2022-12-07T08:35:52;11.87;;;8.00;;
12912;SDS011;6524;51.368;11.984;2022-12-07T08:40:53;9.68;;;6.82;;
12912;SDS011;6524;51.368;11.984;2022-12-07T08:46:05;10.07;;;7.17;;
12912;SDS011;6524;51.368;11.984;2022-12-07T08:51:12;9.90;;;7.23;;
12912;SDS011;6524;51.368;11.984;2022-12-07T08:56:13;10.40;;;7.53;;
12912;SDS011;6524;51.368;11.984;2022-12-07T09:01:13;10.90;;;7.17;;
12912;SDS011;6524;51.368;11.984;2022-12-07T09:06:14;12.23;;;6.93;;
12912;SDS011;6524;51.368;11.984;2022-12-07T09:11:14;10.57;;;6.47;;
12912;SDS011;6524;51.368;11.984;2022-12-07T09:16:15;9.20;;;6.63;;
12912;SDS011;6524;51.368;11.984;2022-12-07T09:21:15;9.90;;;6.95;;
12912;SDS011;6524;51.368;11.984;2022-12-07T09:26:15;9.68;;;6.75;;
12912;SDS011;6524;51.368;11.984;2022-12-07T09:31:16;11.13;;;7.10;;
12912;SDS011;6524;51.368;11.984;2022-12-07T09:36:16;8.77;;;6.53;;
12912;SDS011;6524;51.368;11.984;2022-12-07T09:41:16;10.23;;;6.63;;
12912;SDS011;6524;51.368;11.984;2022-12-07T09:46:18;9.40;;;6.80;;
12912;SDS011;6524;51.368;11.984;2022-12-07T09:51:20;11.57;;;6.80;;
12912;SDS011;6524;51.368;11.984;2022-12-07T09:56:25;9.65;;;6.43;;
12912;SDS011;6524;51.368;11.984;2022-12-07T10:07:17;8.87;;;6.27;;
12912;SDS011;6524;51.368;11.984;2022-12-07T10:12:25;10.30;;;6.18;;
12912;SDS011;6524;51.368;11.984;2022-12-07T10:18:28;8.87;;;6.40;;
12912;SDS011;6524;51.368;11.984;2022-12-07T10:23:30;9.30;;;5.90;;
12912;SDS011;6524;51.368;11.984;2022-12-07T10:28:34;8.37;;;6.23;;
12912;SDS011;6524;51.368;11.984;2022-12-07T10:33:37;7.53;;;5.50;;
12912;SDS011;6524;51.368;11.984;2022-12-07T10:39:31;8.27;;;5.70;;
12912;SDS011;6524;51.368;11.984;2022-12-07T10:44:20;8.10;;;5.43;;
12912;SDS011;6524;51.368;11.984;2022-12-07T11:21:11;5.50;;;4.13;;
12912;SDS011;6524;51.368;11.984;2022-12-07T11:26:31;6.30;;;4.30;;
12912;SDS011;6524;51.368;11.984;2022-12-07T11:37:06;5.07;;;3.72;;
12912;SDS011;6524;51.368;11.984;2022-12-07T11:42:14;5.30;;;3.28;;
12912;SDS011;6524;51.368;11.984;2022-12-07T11:52:54;5.38;;;3.35;;
12912;SDS011;6524;51.368;11.984;2022-12-07T11:58:12;5.20;;;3.10;;
12912;SDS011;6524;51.368;11.984;2022-12-07T12:03:30;4.07;;;2.50;;
12912;SDS011;6524;51.368;11.984;2022-12-07T12:08:43;4.38;;;2.83;;
12912;SDS011;6524;51.368;11.984;2022-12-07T12:14:00;6.03;;;2.90;;
12912;SDS011;6524;51.368;11.984;2022-12-07T12:24:36;3.22;;;2.63;;
12912;SDS011;6524;51.368;11.984;2022-12-07T12:29:40;4.35;;;2.67;;
12912;SDS011;6524;51.368;11.984;2022-12-07T12:40:12;3.90;;;2.60;;
12912;SDS011;6524;51.368;11.984;2022-12-07T12:45:24;2.30;;;2.10;;
12912;SDS011;6524;51.368;11.984;2022-12-07T12:50:27;4.35;;;2.20;;
12912;SDS011;6524;51.368;11.984;2022-12-07T13:00:42;4.40;;;2.20;;
12912;SDS011;6524;51.368;11.984;2022-12-07T13:05:42;4.83;;;2.30;;
12912;SDS011;6524;51.368;11.984;2022-12-07T13:10:47;3.97;;;2.33;;
12912;SDS011;6524;51.368;11.984;2022-12-07T13:20:49;3.37;;;2.20;;
12912;SDS011;6524;51.368;11.984;2022-12-07T13:41:28;3.50;;;2.17;;
12912;SDS011;6524;51.368;11.984;2022-12-07T13:57:20;2.53;;;2.00;;
12912;SDS011;6524;51.368;11.984;2022-12-07T14:02:26;5.50;;;2.40;;
12912;SDS011;6524;51.368;11.984;2022-12-07T14:07:28;2.90;;;2.20;;
12912;SDS011;6524;51.368;11.984;2022-12-07T14:12:29;3.87;;;2.30;;
12912;SDS011;6524;51.368;11.984;2022-12-07T14:17:31;4.90;;;2.17;;
12912;SDS011;6524;51.368;11.984;2022-12-07T14:22:33;3.60;;;2.20;;
12912;SDS011;6524;51.368;11.984;2022-12-07T14:27:34;3.00;;;2.10;;
12912;SDS011;6524;51.368;11.984;2022-12-07T14:32:36;4.53;;;2.30;;
12912;SDS011;6524;51.368;11.984;2022-12-07T14:37:37;3.67;;;2.07;;
12912;SDS011;6524;51.368;11.984;2022-12-07T14:42:39;4.27;;;2.27;;
12912;SDS011;6524;51.368;11.984;2022-12-07T14:47:41;3.77;;;2.13;;
12912;SDS011;6524;51.368;11.984;2022-12-07T14:52:43;2.60;;;1.93;;
12912;SDS011;6524;51.368;11.984;2022-12-07T14:57:46;3.50;;;1.90;;
12912;SDS011;6524;51.368;11.984;2022-12-07T15:02:46;3.33;;;2.43;;
12912;SDS011;6524;51.368;11.984;2022-12-07T15:07:50;4.23;;;2.43;;
12912;SDS011;6524;51.368;11.984;2022-12-07T15:12:51;2.80;;;2.00;;
12912;SDS011;6524;51.368;11.984;2022-12-07T15:17:51;4.07;;;2.40;;
12912;SDS011;6524;51.368;11.984;2022-12-07T15:22:52;2.40;;;2.03;;
12912;SDS011;6524;51.368;11.984;2022-12-07T15:27:52;3.40;;;1.90;;
12912;SDS011;6524;51.368;11.984;2022-12-07T15:32:52;3.97;;;1.80;;
12912;SDS011;6524;51.368;11.984;2022-12-07T15:37:53;3.23;;;1.90;;
12912;SDS011;6524;51.368;11.984;2022-12-07T15:42:53;4.67;;;2.10;;
12912;SDS011;6524;51.368;11.984;2022-12-07T15:47:54;4.53;;;2.50;;
12912;SDS011;6524;51.368;11.984;2022-12-07T15:52:55;4.13;;;2.20;;
12912;SDS011;6524;51.368;11.984;2022-12-07T15:57:55;4.47;;;2.60;;
12912;SDS011;6524;51.368;11.984;2022-12-07T16:02:55;4.83;;;2.33;;
12912;SDS011;6524;51.368;11.984;2022-12-07T16:07:56;4.97;;;2.40;;
12912;SDS011;6524;51.368;11.984;2022-12-07T16:12:57;3.80;;;2.10;;
12912;SDS011;6524;51.368;11.984;2022-12-07T16:17:57;4.30;;;2.50;;
12912;SDS011;6524;51.368;11.984;2022-12-07T16:22:58;5.00;;;3.10;;
12912;SDS011;6524;51.368;11.984;2022-12-07T16:27:58;3.43;;;2.50;;
12912;SDS011;6524;51.368;11.984;2022-12-07T16:32:59;4.00;;;2.30;;
12912;SDS011;6524;51.368;11.984;2022-12-07T16:37:59;5.70;;;2.80;;
12912;SDS011;6524;51.368;11.984;2022-12-07T16:42:59;6.32;;;2.70;;
12912;SDS011;6524;51.368;11.984;2022-12-07T16:48:00;5.13;;;2.43;;
12912;SDS011;6524;51.368;11.984;2022-12-07T16:53:00;4.03;;;2.40;;
12912;SDS011;6524;51.368;11.984;2022-12-07T16:58:00;4.07;;;2.40;;
12912;SDS011;6524;51.368;11.984;2022-12-07T17:03:01;5.07;;;2.60;;
12912;SDS011;6524;51.368;11.984;2022-12-07T17:08:01;4.10;;;2.60;;
12912;SDS011;6524;51.368;11.984;2022-12-07T17:13:02;6.17;;;3.17;;
12912;SDS011;6524;51.368;11.984;2022-12-07T17:18:24;5.37;;;2.70;;
12912;SDS011;6524;51.368;11.984;2022-12-07T17:23:27;5.07;;;2.60;;
12912;SDS011;6524;51.368;11.984;2022-12-07T17:28:27;5.40;;;2.60;;
12912;SDS011;6524;51.368;11.984;2022-12-07T17:33:27;6.40;;;2.80;;
12912;SDS011;6524;51.368;11.984;2022-12-07T17:38:28;4.57;;;2.60;;
12912;SDS011;6524;51.368;11.984;2022-12-07T17:43:28;3.97;;;2.50;;
12912;SDS011;6524;51.368;11.984;2022-12-07T17:48:28;5.27;;;2.67;;
12912;SDS011;6524;51.368;11.984;2022-12-07T17:53:29;7.07;;;2.73;;
12912;SDS011;6524;51.368;11.984;2022-12-07T17:58:29;5.20;;;3.03;;
12912;SDS011;6524;51.368;11.984;2022-12-07T18:03:29;6.43;;;3.77;;
12912;SDS011;6524;51.368;11.984;2022-12-07T18:08:33;6.20;;;2.97;;
12912;SDS011;6524;51.368;11.984;2022-12-07T18:13:35;4.53;;;2.80;;
12912;SDS011;6524;51.368;11.984;2022-12-07T18:18:35;4.97;;;3.20;;
12912;SDS011;6524;51.368;11.984;2022-12-07T18:23:36;6.03;;;3.10;;
12912;SDS011;6524;51.368;11.984;2022-12-07T18:28:37;5.30;;;3.30;;
12912;SDS011;6524;51.368;11.984;2022-12-07T18:33:38;4.63;;;3.13;;
12912;SDS011;6524;51.368;11.984;2022-12-07T18:38:39;4.77;;;3.07;;
12912;SDS011;6524;51.368;11.984;2022-12-07T18:43:40;8.37;;;3.50;;
12912;SDS011;6524;51.368;11.984;2022-12-07T18:48:41;6.90;;;3.40;;
12912;SDS011;6524;51.368;11.984;2022-12-07T18:53:42;5.47;;;3.13;;
12912;SDS011;6524;51.368;11.984;2022-12-07T18:58:43;6.07;;;3.47;;
12912;SDS011;6524;51.368;11.984;2022-12-07T19:04:08;6.07;;;2.90;;
12912;SDS011;6524;51.368;11.984;2022-12-07T19:09:08;6.57;;;3.70;;
12912;SDS011;6524;51.368;11.984;2022-12-07T19:14:09;15.20;;;9.57;;
12912;SDS011;6524;51.368;11.984;2022-12-07T19:19:10;7.23;;;3.87;;
12912;SDS011;6524;51.368;11.984;2022-12-07T19:24:10;5.33;;;4.20;;
12912;SDS011;6524;51.368;11.984;2022-12-07T19:29:12;6.67;;;4.07;;
12912;SDS011;6524;51.368;11.984;2022-12-07T19:34:13;6.07;;;4.23;;
12912;SDS011;6524;51.368;11.984;2022-12-07T19:39:15;6.47;;;3.93;;
12912;SDS011;6524;51.368;11.984;2022-12-07T19:44:20;5.27;;;3.80;;
12912;SDS011;6524;51.368;11.984;2022-12-07T19:49:24;6.17;;;4.07;;
12912;SDS011;6524;51.368;11.984;2022-12-07T19:54:27;5.67;;;3.80;;
12912;SDS011;6524;51.368;11.984;2022-12-07T19:59:29;6.47;;;3.67;;
12912;SDS011;6524;51.368;11.984;2022-12-07T20:04:29;5.03;;;4.07;;
12912;SDS011;6524;51.368;11.984;2022-12-07T20:09:34;5.67;;;4.30;;
12912;SDS011;6524;51.368;11.984;2022-12-07T20:14:35;5.70;;;3.80;;
12912;SDS011;6524;51.368;11.984;2022-12-07T20:19:37;6.57;;;3.93;;
12912;SDS011;6524;51.368;11.984;2022-12-07T20:24:38;7.77;;;4.20;;
12912;SDS011;6524;51.368;11.984;2022-12-07T20:29:38;7.67;;;4.10;;
12912;SDS011;6524;51.368;11.984;2022-12-07T20:34:39;9.33;;;5.70;;
12912;SDS011;6524;51.368;11.984;2022-12-07T20:39:39;6.83;;;4.17;;
12912;SDS011;6524;51.368;11.984;2022-12-07T20:44:40;6.73;;;4.13;;
12912;SDS011;6524;51.368;11.984;2022-12-07T20:49:40;6.00;;;4.70;;
12912;SDS011;6524;51.368;11.984;2022-12-07T20:54:41;7.60;;;4.57;;
12912;SDS011;6524;51.368;11.984;2022-12-07T20:59:42;5.47;;;4.80;;
12912;SDS011;6524;51.368;11.984;2022-12-07T21:04:45;7.47;;;4.70;;
12912;SDS011;6524;51.368;11.984;2022-12-07T21:09:45;8.03;;;5.10;;
12912;SDS011;6524;51.368;11.984;2022-12-07T21:14:46;7.27;;;5.30;;
12912;SDS011;6524;51.368;11.984;2022-12-07T21:19:46;6.33;;;4.80;;
12912;SDS011;6524;51.368;11.984;2022-12-07T21:24:48;7.07;;;5.10;;
12912;SDS011;6524;51.368;11.984;2022-12-07T21:29:48;7.80;;;4.53;;
12912;SDS011;6524;51.368;11.984;2022-12-07T21:34:49;7.10;;;4.87;;
12912;SDS011;6524;51.368;11.984;2022-12-07T21:39:52;7.17;;;4.77;;
12912;SDS011;6524;51.368;11.984;2022-12-07T21:44:56;7.40;;;4.50;;
12912;SDS011;6524;51.368;11.984;2022-12-07T21:49:57;6.83;;;4.60;;
12912;SDS011;6524;51.368;11.984;2022-12-07T21:54:57;8.60;;;4.93;;
12912;SDS011;6524;51.368;11.984;2022-12-07T21:59:58;9.97;;;4.67;;
12912;SDS011;6524;51.368;11.984;2022-12-07T22:05:02;8.03;;;4.60;;
12912;SDS011;6524;51.368;11.984;2022-12-07T22:10:06;8.13;;;4.60;;
12912;SDS011;6524;51.368;11.984;2022-12-07T22:15:07;7.17;;;4.50;;
12912;SDS011;6524;51.368;11.984;2022-12-07T22:20:09;11.90;;;5.17;;
12912;SDS011;6524;51.368;11.984;2022-12-07T22:25:10;10.47;;;4.87;;
12912;SDS011;6524;51.368;11.984;2022-12-07T22:30:12;7.63;;;5.13;;
12912;SDS011;6524;51.368;11.984;2022-12-07T22:35:12;7.17;;;5.30;;
12912;SDS011;6524;51.368;11.984;2022-12-07T22:40:13;6.97;;;5.03;;
12912;SDS011;6524;51.368;11.984;2022-12-07T22:45:14;9.57;;;5.60;;
12912;SDS011;6524;51.368;11.984;2022-12-07T22:50:14;9.23;;;5.80;;
12912;SDS011;6524;51.368;11.984;2022-12-07T22:55:14;7.30;;;5.13;;
12912;SDS011;6524;51.368;11.984;2022-12-07T23:00:15;10.60;;;5.87;;
12912;SDS011;6524;51.368;11.984;2022-12-07T23:05:15;8.17;;;5.63;;
12912;SDS011;6524;51.368;11.984;2022-12-07T23:10:16;10.60;;;7.80;;
12912;SDS011;6524;51.368;11.984;2022-12-07T23:15:16;7.57;;;5.87;;
12912;SDS011;6524;51.368;11.984;2022-12-07T23:20:17;7.70;;;5.33;;
12912;SDS011;6524;51.368;11.984;2022-12-07T23:25:17;8.33;;;5.20;;
12912;SDS011;6524;51.368;11.984;2022-12-07T23:30:18;8.40;;;5.90;;
12912;SDS011;6524;51.368;11.984;2022-12-07T23:35:18;9.63;;;5.80;;
12912;SDS011;6524;51.368;11.984;2022-12-07T23:40:18;8.43;;;5.73;;
12912;SDS011;6524;51.368;11.984;2022-12-07T23:45:18;9.17;;;5.77;;
12912;SDS011;6524;51.368;11.984;2022-12-07T23:50:19;9.30;;;6.37;;
12912;SDS011;6524;51.368;11.984;2022-12-07T23:55:19;9.20;;;6.23;;
